createdAt,value
2023-04-18T00:00:05.975Z,11.2
2023-04-18T00:01:06.914Z,11.2
2023-04-18T00:02:08.000Z,11.2
2023-04-18T00:03:09.153Z,11.2
2023-04-18T00:04:10.061Z,11.2
2023-04-18T00:05:10.939Z,11.2
2023-04-18T00:06:11.934Z,11.2
2023-04-18T00:07:12.896Z,11.2
2023-04-18T00:08:13.953Z,11.2
2023-04-18T00:09:14.984Z,11.2
2023-04-18T00:10:15.913Z,11.2
2023-04-18T00:11:16.964Z,11.2
2023-04-18T00:12:17.911Z,11.2
2023-04-18T00:13:18.954Z,11.2
2023-04-18T00:14:19.911Z,11.3
2023-04-18T00:15:20.933Z,11.3
2023-04-18T00:16:21.955Z,11.3
2023-04-18T00:17:22.945Z,11.4
2023-04-18T00:18:23.956Z,11.4
2023-04-18T00:19:24.934Z,11.4
2023-04-18T00:20:25.925Z,11.4
2023-04-18T00:21:26.935Z,11.4
2023-04-18T00:22:27.973Z,11.4
2023-04-18T00:23:28.952Z,11.4
2023-04-18T00:24:29.936Z,11.4
2023-04-18T00:25:30.954Z,11.4
2023-04-18T00:26:32.106Z,11.3
2023-04-18T00:27:32.943Z,11.3
2023-04-18T00:28:33.996Z,11.3
2023-04-18T00:29:34.945Z,11.3
2023-04-18T00:30:35.967Z,11.2
2023-04-18T00:31:36.912Z,11.1
2023-04-18T00:32:38.001Z,11.1
2023-04-18T00:33:38.958Z,11.1
2023-04-18T00:34:39.994Z,11.1
2023-04-18T00:35:40.933Z,11.2
2023-04-18T00:36:41.934Z,11.1
2023-04-18T00:37:42.897Z,11.1
2023-04-18T00:38:43.939Z,11.1
2023-04-18T00:39:45.014Z,11.1
2023-04-18T00:40:45.934Z,11.1
2023-04-18T00:41:46.967Z,11.1
2023-04-18T00:42:47.973Z,11.1
2023-04-18T00:43:48.983Z,11.1
2023-04-18T00:44:49.994Z,11.1
2023-04-18T00:45:50.965Z,11.1
2023-04-18T00:46:51.986Z,11.1
2023-04-18T00:47:52.968Z,11.1
2023-04-18T00:48:53.956Z,11.1
2023-04-18T00:49:54.944Z,11
2023-04-18T00:50:55.951Z,11
2023-04-18T00:51:56.958Z,11
2023-04-18T00:52:57.935Z,11
2023-04-18T00:53:58.976Z,11
2023-04-18T00:54:59.957Z,11.1
2023-04-18T00:56:01.011Z,11.1
2023-04-18T00:57:02.070Z,11.1
2023-04-18T00:58:02.933Z,11.1
2023-04-18T00:59:03.955Z,11.1
2023-04-18T01:00:05.264Z,11.1
2023-04-18T01:01:05.995Z,11.1
2023-04-18T01:02:07.030Z,11.1
2023-04-18T01:03:08.079Z,11
2023-04-18T01:04:09.085Z,11
2023-04-18T01:05:10.041Z,11.1
2023-04-18T01:06:10.934Z,11
2023-04-18T01:07:11.939Z,11
2023-04-18T01:08:12.936Z,11
2023-04-18T01:09:13.966Z,11
2023-04-18T01:10:15.008Z,11
2023-04-18T01:11:15.925Z,11
2023-04-18T01:12:17.006Z,10.9
2023-04-18T01:13:17.954Z,11
2023-04-18T01:14:18.968Z,11
2023-04-18T01:15:19.973Z,11
2023-04-18T01:16:21.046Z,11
2023-04-18T01:17:21.996Z,11
2023-04-18T01:18:23.024Z,11
2023-04-18T01:19:24.090Z,11
2023-04-18T01:20:24.980Z,11
2023-04-18T01:21:25.974Z,11
2023-04-18T01:22:26.905Z,11
2023-04-18T01:23:27.931Z,11
2023-04-18T01:24:28.995Z,11.1
2023-04-18T01:25:29.972Z,11
2023-04-18T01:26:30.982Z,11
2023-04-18T01:27:32.334Z,11.1
2023-04-18T01:28:32.973Z,11.1
2023-04-18T01:29:33.994Z,11.1
2023-04-18T01:30:34.922Z,11.1
2023-04-18T01:31:36.102Z,11
2023-04-18T01:32:37.001Z,10.9
2023-04-18T01:33:37.972Z,10.8
2023-04-18T01:34:39.070Z,10.9
2023-04-18T01:35:39.929Z,10.9
2023-04-18T01:36:40.962Z,10.9
2023-04-18T01:37:42.012Z,11
2023-04-18T01:38:42.954Z,11
2023-04-18T01:39:44.014Z,11
2023-04-18T01:40:44.953Z,11
2023-04-18T01:41:45.959Z,11
2023-04-18T01:42:46.978Z,11
2023-04-18T01:43:47.956Z,11
2023-04-18T01:44:48.993Z,11.1
2023-04-18T01:45:49.996Z,11.1
2023-04-18T01:46:51.020Z,11.1
2023-04-18T01:47:52.041Z,11
2023-04-18T01:48:52.966Z,11
2023-04-18T01:49:53.996Z,11
2023-04-18T01:50:54.973Z,11
2023-04-18T01:51:55.974Z,11
2023-04-18T01:52:56.996Z,11
2023-04-18T01:53:57.985Z,11.1
2023-04-18T01:54:58.982Z,11.1
2023-04-18T01:55:59.937Z,11
2023-04-18T01:57:00.995Z,11
2023-04-18T01:58:02.024Z,10.9
2023-04-18T01:59:03.003Z,10.9
2023-04-18T02:00:04.074Z,11
2023-04-18T02:01:05.035Z,11
2023-04-18T02:02:06.045Z,11
2023-04-18T02:03:07.130Z,11
2023-04-18T02:04:08.079Z,11
2023-04-18T02:05:09.080Z,11
2023-04-18T02:06:09.986Z,11
2023-04-18T02:07:11.075Z,10.9
2023-04-18T02:08:12.005Z,10.9
2023-04-18T02:09:12.948Z,10.9
2023-04-18T02:10:13.994Z,10.9
2023-04-18T02:11:14.995Z,10.9
2023-04-18T02:12:16.014Z,10.9
2023-04-18T02:13:17.001Z,10.9
2023-04-18T02:14:18.057Z,10.9
2023-04-18T02:15:19.036Z,10.9
2023-04-18T02:16:20.001Z,10.9
2023-04-18T02:17:21.109Z,10.9
2023-04-18T02:18:22.028Z,10.9
2023-04-18T02:19:22.997Z,10.9
2023-04-18T02:20:24.035Z,10.9
2023-04-18T02:21:25.019Z,10.9
2023-04-18T02:22:26.066Z,10.9
2023-04-18T02:23:27.030Z,10.9
2023-04-18T02:24:28.015Z,11
2023-04-18T02:25:28.966Z,10.9
2023-04-18T02:26:29.998Z,11
2023-04-18T02:27:31.016Z,11
2023-04-18T02:28:32.048Z,11
2023-04-18T02:29:33.018Z,11
2023-04-18T02:30:34.040Z,11
2023-04-18T02:31:35.068Z,11
2023-04-18T02:32:36.061Z,11
2023-04-18T02:33:36.994Z,11
2023-04-18T02:34:37.960Z,11
2023-04-18T02:35:39.095Z,11
2023-04-18T02:36:40.017Z,11
2023-04-18T02:37:41.021Z,11
2023-04-18T02:38:41.999Z,11
2023-04-18T02:39:43.047Z,11
2023-04-18T02:40:44.040Z,11
2023-04-18T02:41:44.997Z,10.9
2023-04-18T02:42:46.044Z,10.9
2023-04-18T02:43:47.020Z,10.9
2023-04-18T02:44:47.994Z,10.9
2023-04-18T02:45:49.036Z,10.9
2023-04-18T02:46:50.023Z,10.9
2023-04-18T02:47:55.032Z,10.9
2023-04-18T02:48:52.086Z,10.9
2023-04-18T02:49:53.036Z,10.9
2023-04-18T02:50:54.007Z,10.9
2023-04-18T02:51:55.177Z,11
2023-04-18T02:52:56.093Z,11
2023-04-18T02:53:57.056Z,11
2023-04-18T02:54:58.016Z,11
2023-04-18T02:55:58.996Z,11
2023-04-18T02:57:00.015Z,11
2023-04-18T02:58:01.076Z,11
2023-04-18T02:59:02.088Z,10.9
2023-04-18T03:00:03.057Z,10.9
2023-04-18T03:01:04.068Z,10.9
2023-04-18T03:02:05.040Z,10.8
2023-04-18T03:03:06.152Z,10.8
2023-04-18T03:04:07.094Z,10.8
2023-04-18T03:05:08.129Z,10.8
2023-04-18T03:06:09.013Z,10.9
2023-04-18T03:07:10.047Z,10.9
2023-04-18T03:08:11.061Z,10.9
2023-04-18T03:09:12.053Z,10.8
2023-04-18T03:10:13.217Z,10.8
2023-04-18T03:11:14.075Z,10.7
2023-04-18T03:12:15.173Z,10.7
2023-04-18T03:13:16.014Z,10.7
2023-04-18T03:14:17.100Z,10.8
2023-04-18T03:15:18.093Z,10.8
2023-04-18T03:16:19.105Z,10.7
2023-04-18T03:17:20.029Z,10.7
2023-04-18T03:18:21.034Z,10.6
2023-04-18T03:19:22.032Z,10.5
2023-04-18T03:20:23.031Z,10.6
2023-04-18T03:21:24.101Z,10.6
2023-04-18T03:22:25.015Z,10.6
2023-04-18T03:23:26.019Z,10.6
2023-04-18T03:24:27.031Z,10.6
2023-04-18T03:25:28.201Z,10.5
2023-04-18T03:26:29.055Z,10.5
2023-04-18T03:27:30.018Z,10.6
2023-04-18T03:28:31.033Z,10.6
2023-04-18T03:29:32.044Z,10.6
2023-04-18T03:30:33.034Z,10.6
2023-04-18T03:31:34.170Z,10.6
2023-04-18T03:32:35.107Z,10.6
2023-04-18T03:33:36.009Z,10.6
2023-04-18T03:34:37.013Z,10.6
2023-04-18T03:35:38.014Z,10.7
2023-04-18T03:36:39.046Z,10.7
2023-04-18T03:37:40.002Z,10.6
2023-04-18T03:38:41.031Z,10.6
2023-04-18T03:39:42.040Z,10.7
2023-04-18T03:40:43.111Z,10.7
2023-04-18T03:41:44.044Z,10.7
2023-04-18T03:42:45.072Z,10.7
2023-04-18T03:43:46.032Z,10.6
2023-04-18T03:44:47.143Z,10.6
2023-04-18T03:45:48.100Z,10.6
2023-04-18T03:46:49.193Z,10.6
2023-04-18T03:47:50.122Z,10.6
2023-04-18T03:48:51.059Z,10.6
2023-04-18T03:49:52.053Z,10.4
2023-04-18T03:50:53.043Z,10.4
2023-04-18T03:51:54.109Z,10.4
2023-04-18T03:52:55.034Z,10.5
2023-04-18T03:53:56.015Z,10.4
2023-04-18T03:54:57.014Z,10.4
2023-04-18T03:55:58.041Z,10.4
2023-04-18T03:56:59.134Z,10.4
2023-04-18T03:58:00.127Z,10.4
2023-04-18T03:59:01.097Z,10.4
2023-04-18T04:00:02.193Z,10.5
2023-04-18T04:01:03.036Z,10.4
2023-04-18T04:02:04.140Z,10.4
2023-04-18T04:03:05.186Z,10.4
2023-04-18T04:04:06.235Z,10.3
2023-04-18T04:05:07.147Z,10.3
2023-04-18T04:06:08.080Z,10.3
2023-04-18T04:07:09.028Z,10.3
2023-04-18T04:08:10.105Z,10.3
2023-04-18T04:09:11.083Z,10.3
2023-04-18T04:10:12.043Z,10.3
2023-04-18T04:11:12.976Z,10.3
2023-04-18T04:12:14.058Z,10.3
2023-04-18T04:13:15.079Z,10.3
2023-04-18T04:14:16.272Z,10.3
2023-04-18T04:15:17.086Z,10.4
2023-04-18T04:16:18.181Z,10.3
2023-04-18T04:17:19.137Z,10.3
2023-04-18T04:18:20.101Z,10.2
2023-04-18T04:19:21.097Z,10.3
2023-04-18T04:20:22.527Z,10.3
2023-04-18T04:21:23.080Z,10.3
2023-04-18T04:22:24.061Z,10.2
2023-04-18T04:23:25.053Z,10.2
2023-04-18T04:24:26.084Z,10.2
2023-04-18T04:25:27.064Z,10.2
2023-04-18T04:26:28.058Z,10.1
2023-04-18T04:27:29.139Z,10.1
2023-04-18T04:28:30.096Z,10.1
2023-04-18T04:29:31.104Z,10
2023-04-18T04:30:32.098Z,10
2023-04-18T04:31:33.105Z,10
2023-04-18T04:32:34.428Z,10.1
2023-04-18T04:33:35.135Z,10.2
2023-04-18T04:34:36.083Z,10.2
2023-04-18T04:35:37.093Z,10.2
2023-04-18T04:36:38.062Z,10.2
2023-04-18T04:37:39.095Z,10.1
2023-04-18T04:38:40.044Z,10.1
2023-04-18T04:39:41.177Z,10.1
2023-04-18T04:40:42.895Z,10.1
2023-04-18T04:41:44.054Z,10.2
2023-04-18T04:42:45.353Z,10.2
2023-04-18T04:43:46.071Z,10.2
2023-04-18T04:44:47.128Z,10.2
2023-04-18T04:45:48.174Z,10.2
2023-04-18T04:46:49.053Z,10.2
2023-04-18T04:47:50.137Z,10.2
2023-04-18T04:48:51.078Z,10.3
2023-04-18T04:49:52.153Z,10.2
2023-04-18T04:50:53.105Z,10.1
2023-04-18T04:51:54.056Z,10.1
2023-04-18T04:52:55.075Z,10.2
2023-04-18T04:53:56.074Z,10.2
2023-04-18T04:54:57.473Z,10.3
2023-04-18T04:55:59.122Z,10.3
2023-04-18T04:57:00.121Z,10.2
2023-04-18T04:58:01.291Z,10.2
2023-04-18T04:59:02.096Z,10.2
2023-04-18T05:00:03.270Z,10.3
2023-04-18T05:01:04.160Z,10.2
2023-04-18T05:02:05.202Z,10.2
2023-04-18T05:03:06.675Z,10.2
2023-04-18T05:04:08.181Z,10.3
2023-04-18T05:05:09.175Z,10.3
2023-04-18T05:06:10.132Z,10.3
2023-04-18T05:07:11.333Z,10.4
2023-04-18T05:08:12.135Z,10.4
2023-04-18T05:09:13.092Z,10.4
2023-04-18T05:10:14.092Z,10.4
2023-04-18T05:11:15.136Z,10.4
2023-04-18T05:12:16.155Z,10.3
2023-04-18T05:13:17.136Z,10.4
2023-04-18T05:14:18.086Z,10.4
2023-04-18T05:15:19.340Z,10.3
2023-04-18T05:16:20.694Z,10.3
2023-04-18T05:17:22.100Z,10.2
2023-04-18T05:18:23.133Z,10.3
2023-04-18T05:19:24.097Z,10.3
2023-04-18T05:20:25.139Z,10.4
2023-04-18T05:21:26.079Z,10.4
2023-04-18T05:22:27.097Z,10.5
2023-04-18T05:23:28.091Z,10.5
2023-04-18T05:24:29.101Z,10.4
2023-04-18T05:25:30.139Z,10.4
2023-04-18T05:26:31.139Z,10.4
2023-04-18T05:27:32.091Z,10.4
2023-04-18T05:28:33.132Z,10.3
2023-04-18T05:29:34.116Z,10.4
2023-04-18T05:30:35.150Z,10.4
2023-04-18T05:31:36.283Z,10.5
2023-04-18T05:32:37.157Z,10.5
2023-04-18T05:33:38.133Z,10.5
2023-04-18T05:34:39.101Z,10.4
2023-04-18T05:35:40.156Z,10.4
2023-04-18T05:36:41.104Z,10.4
2023-04-18T05:37:42.118Z,10.4
2023-04-18T05:38:43.071Z,10.4
2023-04-18T05:39:44.182Z,10.4
2023-04-18T05:40:45.102Z,10.4
2023-04-18T05:41:46.126Z,10.4
2023-04-18T05:42:47.136Z,10.5
2023-04-18T05:43:58.020Z,10.4
2023-04-18T05:44:49.390Z,10.2
2023-04-18T05:45:50.143Z,10.1
2023-04-18T05:46:51.574Z,10.2
2023-04-18T05:47:53.245Z,10.2
2023-04-18T05:48:54.182Z,10.2
2023-04-18T05:49:56.347Z,10.3
2023-04-18T05:50:57.125Z,10.3
2023-04-18T05:51:58.117Z,10.2
2023-04-18T05:52:59.142Z,10.3
2023-04-18T05:54:00.133Z,10.3
2023-04-18T05:55:01.336Z,10.3
2023-04-18T05:56:02.239Z,10.3
2023-04-18T05:57:04.472Z,10.4
2023-04-18T05:58:04.134Z,10.4
2023-04-18T05:59:05.106Z,10.4
2023-04-18T06:00:06.198Z,10.5
2023-04-18T06:01:07.721Z,10.5
2023-04-18T06:02:09.291Z,10.4
2023-04-18T06:03:10.946Z,10.4
2023-04-18T06:04:11.689Z,10.4
2023-04-18T06:05:13.287Z,10.5
2023-04-18T06:06:14.613Z,10.4
2023-04-18T06:07:16.217Z,10.5
2023-04-18T06:08:17.127Z,10.5
2023-04-18T06:09:18.304Z,10.5
2023-04-18T06:10:19.455Z,10.5
2023-04-18T06:11:21.422Z,10.5
2023-04-18T06:12:23.136Z,10.5
2023-04-18T06:13:24.162Z,10.5
2023-04-18T06:14:25.138Z,10.5
2023-04-18T06:15:26.339Z,10.5
2023-04-18T06:16:27.179Z,10.5
2023-04-18T06:17:28.097Z,10.6
2023-04-18T06:18:29.156Z,10.6
2023-04-18T06:19:30.338Z,10.5
2023-04-18T06:20:32.140Z,10.5
2023-04-18T06:21:33.156Z,10.6
2023-04-18T06:22:34.101Z,10.6
2023-04-18T06:23:35.138Z,10.6
2023-04-18T06:24:36.089Z,10.7
2023-04-18T06:25:37.321Z,10.7
2023-04-18T06:26:38.522Z,10.7
2023-04-18T06:27:40.216Z,10.7
2023-04-18T06:28:41.221Z,10.6
2023-04-18T06:29:42.095Z,10.6
2023-04-18T06:30:43.238Z,10.6
2023-04-18T06:31:44.222Z,10.7
2023-04-18T06:32:46.302Z,10.7
2023-04-18T06:33:47.176Z,10.8
2023-04-18T06:34:48.157Z,10.8
2023-04-18T06:35:49.162Z,10.7
2023-04-18T06:36:50.139Z,10.6
2023-04-18T06:37:51.137Z,10.6
2023-04-18T06:38:52.655Z,10.6
2023-04-18T06:39:54.108Z,10.6
2023-04-18T06:40:55.110Z,10.6
2023-04-18T06:41:56.600Z,10.7
2023-04-18T06:42:58.183Z,10.7
2023-04-18T06:44:14.561Z,10.6
2023-04-18T06:45:00.283Z,10.7
2023-04-18T06:46:01.328Z,10.7
2023-04-18T06:47:02.196Z,10.8
2023-04-18T06:48:03.810Z,10.8
2023-04-18T06:49:05.165Z,10.9
2023-04-18T06:50:06.147Z,10.9
2023-04-18T06:51:07.409Z,10.9
2023-04-18T06:52:08.155Z,10.9
2023-04-18T06:53:09.177Z,10.8
2023-04-18T06:54:10.155Z,10.9
2023-04-18T06:55:11.117Z,10.9
2023-04-18T06:56:12.108Z,10.9
2023-04-18T06:57:13.231Z,10.9
2023-04-18T06:58:14.166Z,11
2023-04-18T06:59:15.177Z,11
2023-04-18T07:00:16.479Z,11
2023-04-18T07:01:17.251Z,11
2023-04-18T07:02:18.181Z,11
2023-04-18T07:03:19.339Z,10.9
2023-04-18T07:04:20.460Z,10.9
2023-04-18T07:05:21.177Z,10.8
2023-04-18T07:06:22.135Z,10.8
2023-04-18T07:07:23.177Z,10.9
2023-04-18T07:08:24.160Z,10.9
2023-04-18T07:09:25.145Z,11
2023-04-18T07:10:26.226Z,11
2023-04-18T07:11:28.108Z,11
2023-04-18T07:12:29.171Z,11
2023-04-18T07:13:30.171Z,10.9
2023-04-18T07:14:32.292Z,10.8
2023-04-18T07:15:32.133Z,10.9
2023-04-18T07:16:33.074Z,10.8
2023-04-18T07:17:34.232Z,10.7
2023-04-18T07:18:38.233Z,10.7
2023-04-18T07:19:36.232Z,10.7
2023-04-18T07:20:37.213Z,10.6
2023-04-18T07:21:38.251Z,10.6
2023-04-18T07:22:39.174Z,10.6
2023-04-18T07:23:40.212Z,10.7
2023-04-18T07:24:41.173Z,10.7
2023-04-18T07:25:42.157Z,10.8
2023-04-18T07:26:43.224Z,10.9
2023-04-18T07:27:44.230Z,10.9
2023-04-18T07:28:45.200Z,10.9
2023-04-18T07:29:46.155Z,10.9
2023-04-18T07:30:47.214Z,10.9
2023-04-18T07:31:48.251Z,11
2023-04-18T07:32:49.193Z,11
2023-04-18T07:33:50.603Z,10.9
2023-04-18T07:34:52.260Z,10.9
2023-04-18T07:35:53.297Z,11
2023-04-18T07:36:54.173Z,10.9
2023-04-18T07:37:55.175Z,11
2023-04-18T07:38:56.772Z,11.1
2023-04-18T07:39:58.213Z,11.1
2023-04-18T07:40:59.172Z,11.2
2023-04-18T07:42:00.375Z,11.3
2023-04-18T07:43:01.197Z,11.3
2023-04-18T07:44:02.212Z,11.3
2023-04-18T07:45:03.356Z,11.3
2023-04-18T07:46:04.217Z,11.4
2023-04-18T07:47:05.196Z,11.4
2023-04-18T07:48:06.229Z,11.4
2023-04-18T07:49:07.232Z,11.5
2023-04-18T07:50:08.820Z,11.5
2023-04-18T07:51:10.220Z,11.5
2023-04-18T07:52:11.398Z,11.5
2023-04-18T07:53:12.153Z,11.5
2023-04-18T07:54:13.288Z,11.5
2023-04-18T07:55:14.154Z,11.4
2023-04-18T07:56:15.436Z,11.3
2023-04-18T07:57:16.160Z,11.3
2023-04-18T07:58:17.180Z,11.1
2023-04-18T07:59:18.200Z,11.2
2023-04-18T08:00:19.282Z,11.1
2023-04-18T08:01:20.296Z,11.1
2023-04-18T08:02:21.265Z,11.2
2023-04-18T08:03:22.346Z,11.2
2023-04-18T08:04:23.348Z,11.2
2023-04-18T08:05:24.201Z,11.2
2023-04-18T08:06:25.197Z,11.3
2023-04-18T08:07:26.207Z,11.4
2023-04-18T08:08:27.253Z,11.4
2023-04-18T08:09:28.185Z,11.3
2023-04-18T08:10:29.240Z,11.2
2023-04-18T08:11:30.206Z,11.1
2023-04-18T08:12:31.220Z,11.2
2023-04-18T08:13:32.236Z,11.2
2023-04-18T08:14:33.199Z,11.3
2023-04-18T08:15:34.181Z,11.1
2023-04-18T08:16:35.213Z,10.9
2023-04-18T08:17:36.248Z,10.8
2023-04-18T08:18:37.217Z,10.8
2023-04-18T08:19:38.217Z,10.8
2023-04-18T08:20:39.501Z,10.7
2023-04-18T08:21:41.202Z,10.8
2023-04-18T08:22:57.333Z,10.6
2023-04-18T08:23:43.218Z,10.7
2023-04-18T08:24:57.402Z,10.8
2023-04-18T08:25:46.216Z,10.8
2023-04-18T08:26:47.200Z,11
2023-04-18T08:27:48.176Z,11
2023-04-18T08:28:49.159Z,11.1
2023-04-18T08:29:50.176Z,11.2
2023-04-18T08:30:51.287Z,11.3
2023-04-18T08:31:52.219Z,11.3
2023-04-18T08:32:53.334Z,11.3
2023-04-18T08:33:54.162Z,11.4
2023-04-18T08:34:55.460Z,11.5
2023-04-18T08:35:56.245Z,11.5
2023-04-18T08:36:57.235Z,11.5
2023-04-18T08:37:58.198Z,11.5
2023-04-18T08:38:59.196Z,11.5
2023-04-18T08:40:00.302Z,11.4
2023-04-18T08:41:01.216Z,11.2
2023-04-18T08:42:02.237Z,11.1
2023-04-18T08:43:03.247Z,11
2023-04-18T08:44:04.243Z,10.9
2023-04-18T08:45:05.339Z,10.9
2023-04-18T08:46:06.333Z,11
2023-04-18T08:47:07.252Z,11
2023-04-18T08:48:08.267Z,10.9
2023-04-18T08:49:11.404Z,10.9
2023-04-18T08:50:10.728Z,10.9
2023-04-18T08:51:11.239Z,10.9
2023-04-18T08:52:12.303Z,10.9
2023-04-18T08:53:13.297Z,11
2023-04-18T08:54:14.215Z,11.1
2023-04-18T08:55:15.219Z,11.2
2023-04-18T08:56:16.245Z,11.1
2023-04-18T08:57:17.149Z,11.2
2023-04-18T08:58:18.192Z,11.2
2023-04-18T08:59:19.192Z,11.2
2023-04-18T09:00:20.273Z,11.3
2023-04-18T09:01:21.529Z,11.3
2023-04-18T09:02:22.386Z,11.3
2023-04-18T09:03:23.278Z,11.3
2023-04-18T09:04:24.257Z,11.3
2023-04-18T09:05:25.798Z,11.3
2023-04-18T09:06:27.794Z,11.3
2023-04-18T09:07:28.210Z,11.3
2023-04-18T09:08:29.555Z,11.1
2023-04-18T09:09:30.258Z,11
2023-04-18T09:10:31.216Z,11.1
2023-04-18T09:11:32.212Z,11.1
2023-04-18T09:12:33.213Z,11.2
2023-04-18T09:13:34.252Z,11.3
2023-04-18T09:14:35.279Z,11.4
2023-04-18T09:15:36.212Z,11.6
2023-04-18T09:16:37.258Z,11.6
2023-04-18T09:17:38.306Z,11.6
2023-04-18T09:18:39.215Z,11.6
2023-04-18T09:19:40.314Z,11.7
2023-04-18T09:20:41.624Z,11.7
2023-04-18T09:21:42.419Z,11.9
2023-04-18T09:22:43.634Z,11.8
2023-04-18T09:23:44.314Z,11.8
2023-04-18T09:24:45.270Z,11.6
2023-04-18T09:25:46.211Z,11.5
2023-04-18T09:26:47.253Z,11.6
2023-04-18T09:27:48.234Z,11.7
2023-04-18T09:28:49.289Z,11.8
2023-04-18T09:29:50.257Z,11.6
2023-04-18T09:30:51.845Z,11.4
2023-04-18T09:31:53.650Z,11.4
2023-04-18T09:32:54.319Z,11.4
2023-04-18T09:33:55.240Z,11.6
2023-04-18T09:34:57.056Z,11.5
2023-04-18T09:35:58.352Z,11.2
2023-04-18T09:36:59.374Z,11.3
2023-04-18T09:38:00.266Z,11.4
2023-04-18T09:39:01.276Z,11.5
2023-04-18T09:40:02.235Z,11.6
2023-04-18T09:41:03.278Z,11.6
2023-04-18T09:42:04.371Z,11.6
2023-04-18T09:43:05.338Z,11.6
2023-04-18T09:44:06.200Z,11.7
2023-04-18T09:45:07.354Z,11.7
2023-04-18T09:46:08.316Z,11.7
2023-04-18T09:47:09.276Z,11.8
2023-04-18T09:48:10.313Z,11.9
2023-04-18T09:49:11.362Z,11.7
2023-04-18T09:50:12.246Z,11.5
2023-04-18T09:51:13.303Z,11.6
2023-04-18T09:52:14.277Z,11.6
2023-04-18T09:53:15.201Z,11.6
2023-04-18T09:54:16.398Z,11.8
2023-04-18T09:55:17.229Z,11.9
2023-04-18T09:56:18.237Z,12
2023-04-18T09:57:19.257Z,12
2023-04-18T09:58:20.238Z,12
2023-04-18T09:59:21.353Z,12.1
2023-04-18T10:00:22.343Z,12.2
2023-04-18T10:01:23.353Z,12.3
2023-04-18T10:02:24.458Z,12.4
2023-04-18T10:03:25.268Z,12.4
2023-04-18T10:04:26.320Z,12.2
2023-04-18T10:05:27.317Z,12.2
2023-04-18T10:06:28.365Z,12.2
2023-04-18T10:07:29.276Z,12.3
2023-04-18T10:08:30.392Z,12.4
2023-04-18T10:09:31.337Z,12.4
2023-04-18T10:10:32.354Z,12.5
2023-04-18T10:11:33.292Z,12.5
2023-04-18T10:12:34.262Z,12.5
2023-04-18T10:13:35.241Z,12.5
2023-04-18T10:14:36.350Z,12.5
2023-04-18T10:15:37.471Z,12.6
2023-04-18T10:16:38.343Z,12.6
2023-04-18T10:17:40.134Z,12.6
2023-04-18T10:18:40.325Z,12.4
2023-04-18T10:19:41.283Z,12.5
2023-04-18T10:20:42.232Z,12.5
2023-04-18T10:21:43.675Z,12.6
2023-04-18T10:22:45.537Z,12.7
2023-04-18T10:23:46.627Z,12.7
2023-04-18T10:24:47.239Z,12.7
2023-04-18T10:25:48.300Z,12.8
2023-04-18T10:26:49.273Z,12.8
2023-04-18T10:27:50.314Z,12.9
2023-04-18T10:28:51.247Z,12.8
2023-04-18T10:29:52.305Z,12.8
2023-04-18T10:30:53.352Z,12.9
2023-04-18T10:31:54.376Z,12.9
2023-04-18T10:32:55.374Z,12.9
2023-04-18T10:34:04.468Z,13
2023-04-18T10:34:57.296Z,13.1
2023-04-18T10:35:58.218Z,13.2
2023-04-18T10:36:59.556Z,13.1
2023-04-18T10:38:00.316Z,13.1
2023-04-18T10:39:01.260Z,13
2023-04-18T10:40:02.339Z,13.1
2023-04-18T10:41:03.271Z,13
2023-04-18T10:42:04.288Z,12.9
2023-04-18T10:43:05.717Z,12.9
2023-04-18T10:44:08.359Z,13
2023-04-18T10:45:08.497Z,12.9
2023-04-18T10:46:17.295Z,12.9
2023-04-18T10:47:10.417Z,12.8
2023-04-18T10:48:11.343Z,12.9
2023-04-18T10:49:12.496Z,12.9
2023-04-18T10:50:13.305Z,12.9
2023-04-18T10:51:14.257Z,12.9
2023-04-18T10:52:15.357Z,13
2023-04-18T10:53:16.316Z,13
2023-04-18T10:54:17.375Z,13
2023-04-18T10:55:18.335Z,13.1
2023-04-18T10:56:19.310Z,13.2
2023-04-18T10:57:20.279Z,13.3
2023-04-18T10:58:21.476Z,13.1
2023-04-18T10:59:22.338Z,13
2023-04-18T11:00:23.275Z,13.1
2023-04-18T11:01:24.400Z,13.1
2023-04-18T11:02:25.356Z,13.2
2023-04-18T11:03:26.286Z,13.3
2023-04-18T11:04:27.315Z,13.3
2023-04-18T11:05:28.325Z,13.3
2023-04-18T11:06:29.537Z,13.2
2023-04-18T11:07:30.317Z,13.3
2023-04-18T11:08:31.283Z,13.3
2023-04-18T11:09:32.307Z,13.3
2023-04-18T11:10:33.337Z,13.3
2023-04-18T11:11:34.280Z,13.3
2023-04-18T11:12:35.952Z,13.4
2023-04-18T11:13:36.480Z,13.4
2023-04-18T11:14:37.328Z,13.5
2023-04-18T11:15:38.299Z,13.4
2023-04-18T11:16:39.315Z,13.4
2023-04-18T11:17:40.451Z,13.4
2023-04-18T11:18:41.276Z,13.4
2023-04-18T11:19:42.299Z,13.4
2023-04-18T11:20:43.301Z,13.5
2023-04-18T11:21:44.310Z,13.6
2023-04-18T11:22:45.439Z,13.7
2023-04-18T11:23:46.265Z,13.8
2023-04-18T11:24:47.328Z,13.9
2023-04-18T11:25:48.506Z,13.9
2023-04-18T11:26:49.279Z,14
2023-04-18T11:27:50.278Z,14.1
2023-04-18T11:28:51.312Z,14.1
2023-04-18T11:29:52.319Z,14.2
2023-04-18T11:30:53.312Z,14
2023-04-18T11:31:56.789Z,14.1
2023-04-18T11:32:55.326Z,14.1
2023-04-18T11:33:56.328Z,14.1
2023-04-18T11:34:57.417Z,14
2023-04-18T11:35:59.102Z,14
2023-04-18T11:37:02.559Z,14
2023-04-18T11:38:03.334Z,13.9
2023-04-18T11:39:04.318Z,13.9
2023-04-18T11:40:05.321Z,14
2023-04-18T11:41:06.357Z,14
2023-04-18T11:42:07.317Z,14
2023-04-18T11:43:08.293Z,13.7
2023-04-18T11:44:09.319Z,13.6
2023-04-18T11:45:10.418Z,13.5
2023-04-18T11:46:11.436Z,13.5
2023-04-18T11:47:12.618Z,13.5
2023-04-18T11:48:14.855Z,13.4
2023-04-18T11:49:16.303Z,13.3
2023-04-18T11:50:17.325Z,13.2
2023-04-18T11:51:19.355Z,13.2
2023-04-18T11:52:20.596Z,13.1
2023-04-18T11:53:21.663Z,13
2023-04-18T11:54:22.357Z,12.9
2023-04-18T11:55:23.302Z,12.8
2023-04-18T11:56:24.347Z,12.8
2023-04-18T11:57:28.644Z,12.8
2023-04-18T11:58:30.312Z,12.9
2023-04-18T11:59:31.299Z,12.9
2023-04-18T12:00:32.286Z,12.8
2023-04-18T12:01:33.308Z,12.9
2023-04-18T12:02:34.527Z,12.9
2023-04-18T12:03:35.493Z,13
2023-04-18T12:04:36.450Z,13
2023-04-18T12:05:37.549Z,13.1
2023-04-18T12:06:38.310Z,13.2
2023-04-18T12:07:39.422Z,13.3
2023-04-18T12:08:40.440Z,13.2
2023-04-18T12:09:41.318Z,13.1
2023-04-18T12:10:42.515Z,13.1
2023-04-18T12:11:43.395Z,13.2
2023-04-18T12:12:44.318Z,13.3
2023-04-18T12:13:45.356Z,13.4
2023-04-18T12:14:46.337Z,13.4
2023-04-18T12:15:47.426Z,13.4
2023-04-18T12:16:48.818Z,13.4
2023-04-18T12:17:50.385Z,13.4
2023-04-18T12:18:51.358Z,13.5
2023-04-18T12:19:52.355Z,13.6
2023-04-18T12:20:53.316Z,13.5
2023-04-18T12:21:54.339Z,13.4
2023-04-18T12:22:55.295Z,13.3
2023-04-18T12:23:56.381Z,13.4
2023-04-18T12:24:57.924Z,13.5
2023-04-18T12:25:59.355Z,13.6
2023-04-18T12:27:00.416Z,13.6
2023-04-18T12:28:01.381Z,13.7
2023-04-18T12:29:02.273Z,13.7
2023-04-18T12:30:03.581Z,13.8
2023-04-18T12:31:04.333Z,13.8
2023-04-18T12:32:05.435Z,13.8
2023-04-18T12:33:06.469Z,13.8
2023-04-18T12:34:07.343Z,13.8
2023-04-18T12:35:08.726Z,13.9
2023-04-18T12:36:10.359Z,13.9
2023-04-18T12:37:11.333Z,13.9
2023-04-18T12:38:12.332Z,13.9
2023-04-18T12:39:13.317Z,14
2023-04-18T12:40:14.672Z,14
2023-04-18T12:41:16.303Z,14.2
2023-04-18T12:42:17.305Z,14.2
2023-04-18T12:43:18.289Z,14.1
2023-04-18T12:44:19.341Z,14.1
2023-04-18T12:45:20.382Z,14
2023-04-18T12:46:21.524Z,14
2023-04-18T12:47:22.350Z,13.8
2023-04-18T12:48:23.312Z,13.7
2023-04-18T12:49:24.398Z,13.7
2023-04-18T12:50:25.345Z,13.8
2023-04-18T12:51:26.337Z,13.8
2023-04-18T12:52:27.392Z,13.8
2023-04-18T12:53:28.566Z,13.9
2023-04-18T12:54:29.412Z,13.9
2023-04-18T12:55:30.349Z,14
2023-04-18T12:56:31.332Z,14
2023-04-18T12:57:32.288Z,14.2
2023-04-18T12:58:33.290Z,14.1
2023-04-18T12:59:34.813Z,14.2
2023-04-18T13:00:36.426Z,14.1
2023-04-18T13:01:37.429Z,14.2
2023-04-18T13:03:56.698Z,14.4
2023-04-18T13:04:53.510Z,14.4
2023-04-18T13:05:54.351Z,14.4
2023-04-18T13:06:55.476Z,14.5
2023-04-18T13:08:05.048Z,14.5
2023-04-18T13:08:57.604Z,14.7
2023-04-18T13:09:58.448Z,14.8
2023-04-18T13:10:59.338Z,14.8
2023-04-18T13:12:00.439Z,14.8
2023-04-18T13:13:01.368Z,14.9
2023-04-18T13:14:03.032Z,14.8
2023-04-18T13:15:04.586Z,14.8
2023-04-18T13:16:05.444Z,14.9
2023-04-18T13:17:06.368Z,14.9
2023-04-18T13:18:07.373Z,15
2023-04-18T13:19:08.363Z,15
2023-04-18T13:20:09.448Z,15.1
2023-04-18T13:21:10.343Z,15.2
2023-04-18T13:22:11.325Z,15.2
2023-04-18T13:23:12.347Z,15.2
2023-04-18T13:24:13.330Z,15.3
2023-04-18T13:25:14.525Z,15.3
2023-04-18T13:26:15.359Z,15.2
2023-04-18T13:27:16.293Z,15.2
2023-04-18T13:28:17.324Z,15.3
2023-04-18T13:29:18.328Z,15.3
2023-04-18T13:30:19.434Z,15.3
2023-04-18T13:31:20.423Z,15.3
2023-04-18T13:32:21.401Z,15.2
2023-04-18T13:33:22.403Z,15.3
2023-04-18T13:34:23.348Z,15.3
2023-04-18T13:35:24.570Z,15.4
2023-04-18T13:36:25.322Z,15.4
2023-04-18T13:37:26.355Z,15.3
2023-04-18T13:38:27.372Z,15.3
2023-04-18T13:39:28.343Z,15.3
2023-04-18T13:40:29.337Z,15.1
2023-04-18T13:44:00.595Z,14.9